Terminal Aerodrome Forecast
Issued by NWS

Home | Current Version | Previous Version | Text Only | Print | Product List | Glossary On
Versions: 1 2 3 4 5 6 7 8 9 10 11 12 13 14 15 16
022
FTAK31 PAJN 110303 AAA
TAFASI
TAF AMD
PASI 110303Z 1103/1124 15012KT P6SM -RA OVC040
     FM110600 14015G25KT 3SM -RA BR OVC010 WS020/16030KT
     FM111200 18012KT 5SM -SHRA SCT010 BKN025 BKN050=

USA.gov is the U.S. government's official web portal to all federal, state and local government web resources and services.